createdAt,value
2023-02-24T00:02:02.329Z,0.73
2023-02-24T00:04:35.214Z,0.64
2023-02-24T00:07:03.439Z,0.61
2023-02-24T00:09:33.504Z,0.50
2023-02-24T00:12:11.526Z,0.44
2023-02-24T00:14:43.462Z,0.53
2023-02-24T00:17:16.348Z,0.65
2023-02-24T00:19:46.615Z,0.75
2023-02-24T00:22:15.213Z,0.84
2023-02-24T00:24:43.387Z,0.73
2023-02-24T00:27:12.385Z,0.59
2023-02-24T00:29:42.315Z,0.68
2023-02-24T00:32:13.482Z,0.69
2023-02-24T00:34:43.501Z,0.71
2023-02-24T00:37:12.397Z,0.81
2023-02-24T00:39:42.102Z,0.84
2023-02-24T00:42:12.147Z,0.86
2023-02-24T00:44:44.786Z,0.87
2023-02-24T00:47:16.458Z,0.71
2023-02-24T00:49:45.263Z,0.60
2023-02-24T00:52:15.977Z,0.52
2023-02-24T00:54:49.880Z,0.60
2023-02-24T00:57:20.648Z,0.67
2023-02-24T00:59:51.537Z,0.73
2023-02-24T01:02:20.754Z,0.67
2023-02-24T01:04:50.129Z,0.71
2023-02-24T01:07:18.750Z,0.75
2023-02-24T01:09:51.021Z,0.77
2023-02-24T01:12:22.251Z,0.79
2023-02-24T01:14:52.930Z,0.81
2023-02-24T01:17:22.170Z,0.76
2023-02-24T01:19:50.737Z,0.67
2023-02-24T01:22:21.330Z,0.66
2023-02-24T01:24:50.112Z,0.64
2023-02-24T01:27:19.578Z,0.60
2023-02-24T01:29:49.447Z,0.54
2023-02-24T01:32:22.658Z,0.54
2023-02-24T01:34:53.832Z,0.62
2023-02-24T01:37:22.258Z,0.64
2023-02-24T01:39:51.027Z,0.55
2023-02-24T01:42:22.189Z,0.60
2023-02-24T01:44:52.410Z,0.63
2023-02-24T01:47:21.490Z,0.67
2023-02-24T01:49:53.724Z,0.64
2023-02-24T01:52:30.732Z,0.67
2023-02-24T01:55:24.768Z,0.73
2023-02-24T01:57:54.358Z,0.76
2023-02-24T02:00:37.581Z,0.76
2023-02-24T02:03:35.309Z,0.75
2023-02-24T02:06:11.353Z,0.64
2023-02-24T02:08:42.602Z,0.54
2023-02-24T02:11:14.727Z,0.54
2023-02-24T02:13:45.802Z,0.52
2023-02-24T02:16:38.619Z,0.42
2023-02-24T02:19:13.661Z,0.33
2023-02-24T02:21:56.890Z,0.39
2023-02-24T02:24:37.354Z,0.46
2023-02-24T02:27:39.046Z,0.38
2023-02-24T02:30:26.271Z,0.28
2023-02-24T02:33:13.415Z,0.33
2023-02-24T02:35:50.379Z,0.48
2023-02-24T02:38:34.913Z,0.51
2023-02-24T02:41:09.366Z,0.47
2023-02-24T02:43:45.136Z,0.53
2023-02-24T02:46:35.006Z,0.49
2023-02-24T02:49:32.426Z,0.40
2023-02-24T02:52:21.294Z,0.37
2023-02-24T02:55:14.247Z,0.50
2023-02-24T02:57:47.903Z,0.61
2023-02-24T03:00:24.246Z,0.48
2023-02-24T03:02:58.526Z,0.49
2023-02-24T03:05:33.299Z,0.48
2023-02-24T03:08:05.296Z,0.53
2023-02-24T03:10:34.569Z,0.57
2023-02-24T03:13:06.484Z,0.57
2023-02-24T03:15:42.262Z,0.57
2023-02-24T03:18:22.951Z,0.60
2023-02-24T03:20:57.851Z,0.70
2023-02-24T03:23:31.955Z,0.67
2023-02-24T03:26:08.229Z,0.70
2023-02-24T03:28:44.337Z,0.79
2023-02-24T03:31:29.014Z,0.80
2023-02-24T03:34:10.565Z,0.85
2023-02-24T03:36:39.435Z,0.90
2023-02-24T03:39:12.030Z,0.95
2023-02-24T03:41:47.579Z,0.98
2023-02-24T03:44:16.421Z,0.90
2023-02-24T03:46:44.982Z,0.85
2023-02-24T03:49:16.884Z,0.88
2023-02-24T03:51:59.823Z,0.94
2023-02-24T03:54:47.148Z,0.98
2023-02-24T03:57:54.934Z,0.95
2023-02-24T04:00:52.725Z,0.99
2023-02-24T04:04:00.550Z,1.00
2023-02-24T04:07:01.105Z,0.93
2023-02-24T04:09:48.084Z,0.95
2023-02-24T04:12:35.161Z,0.97
2023-02-24T04:15:37.859Z,0.88
2023-02-24T04:18:16.023Z,0.89
2023-02-24T04:20:51.074Z,0.81
2023-02-24T04:23:26.948Z,0.70
2023-02-24T04:25:58.658Z,0.77
2023-02-24T04:28:28.583Z,0.75
2023-02-24T04:31:10.286Z,0.63
2023-02-24T04:33:40.593Z,0.67
2023-02-24T04:36:13.033Z,0.71
2023-02-24T04:38:41.752Z,0.83
2023-02-24T04:41:10.288Z,0.94
2023-02-24T04:43:38.544Z,1.00
2023-02-24T04:46:08.467Z,1.03
2023-02-24T04:48:36.718Z,0.97
2023-02-24T04:51:06.639Z,0.91
2023-02-24T04:53:35.070Z,0.94
2023-02-24T04:56:09.196Z,0.95
2023-02-24T04:58:40.169Z,0.94
2023-02-24T05:01:13.487Z,0.97
2023-02-24T05:03:44.212Z,1.00
2023-02-24T05:06:16.283Z,1.03
2023-02-24T05:08:45.270Z,1.01
2023-02-24T05:11:18.581Z,0.97
2023-02-24T05:13:47.268Z,0.99
2023-02-24T05:16:20.534Z,1.07
2023-02-24T05:18:49.034Z,1.17
2023-02-24T05:21:36.287Z,1.27
2023-02-24T05:24:07.048Z,1.32
2023-02-24T05:26:37.341Z,1.37
2023-02-24T05:29:07.169Z,1.42
2023-02-24T05:31:37.208Z,1.44
2023-02-24T05:34:07.831Z,1.46
2023-02-24T05:36:40.741Z,1.52
2023-02-24T05:39:12.910Z,1.60
2023-02-24T05:41:43.181Z,1.63
2023-02-24T05:44:17.270Z,1.61
2023-02-24T05:46:47.204Z,1.59
2023-02-24T05:49:23.803Z,1.62
2023-02-24T05:51:57.312Z,1.61
2023-02-24T05:54:29.904Z,1.62
2023-02-24T05:57:04.211Z,1.58
2023-02-24T05:59:33.630Z,1.62
2023-02-24T06:02:09.305Z,1.73
2023-02-24T06:04:40.172Z,1.79
2023-02-24T06:07:13.925Z,1.77
2023-02-24T06:09:43.060Z,1.76
2023-02-24T06:12:12.302Z,1.77
2023-02-24T06:14:40.927Z,1.76
2023-02-24T06:17:09.639Z,1.82
2023-02-24T06:19:37.772Z,1.89
2023-02-24T06:22:11.021Z,1.96
2023-02-24T06:24:44.504Z,2.06
2023-02-24T06:27:21.784Z,2.13
2023-02-24T06:29:52.324Z,2.13
2023-02-24T06:32:23.984Z,2.08
2023-02-24T06:34:54.072Z,2.12
2023-02-24T06:37:25.262Z,2.09
2023-02-24T06:39:53.580Z,2.10
2023-02-24T06:42:22.062Z,2.11
2023-02-24T06:44:50.527Z,2.15
2023-02-24T06:47:27.059Z,2.21
2023-02-24T06:49:55.353Z,2.27
2023-02-24T06:52:23.839Z,2.27
2023-02-24T06:54:52.624Z,2.25
2023-02-24T06:57:20.900Z,2.17
2023-02-24T06:59:49.499Z,2.12
2023-02-24T07:02:17.881Z,2.17
2023-02-24T07:04:46.273Z,2.19
2023-02-24T07:07:14.780Z,2.22
2023-02-24T07:09:45.558Z,2.24
2023-02-24T07:12:15.792Z,2.27
2023-02-24T07:14:44.213Z,2.34
2023-02-24T07:17:15.009Z,2.36
2023-02-24T07:19:44.339Z,2.43
2023-02-24T07:22:17.098Z,2.51
2023-02-24T07:24:46.561Z,2.56
2023-02-24T07:27:23.444Z,2.62
2023-02-24T07:29:53.376Z,2.75
2023-02-24T07:32:23.186Z,2.86
2023-02-24T07:34:51.583Z,2.86
2023-02-24T07:37:20.839Z,2.93
2023-02-24T07:39:49.384Z,3.00
2023-02-24T07:42:17.865Z,3.09
2023-02-24T07:44:47.013Z,3.09
2023-02-24T07:47:16.308Z,3.13
2023-02-24T07:49:45.695Z,3.28
2023-02-24T07:52:14.372Z,3.40
2023-02-24T07:54:43.282Z,3.42
2023-02-24T07:57:14.255Z,3.48
2023-02-24T07:59:45.426Z,3.55
2023-02-24T08:02:14.050Z,3.60
2023-02-24T08:04:50.120Z,3.66
2023-02-24T08:07:25.062Z,3.66
2023-02-24T08:10:12.392Z,3.69
2023-02-24T08:12:45.171Z,3.72
2023-02-24T08:15:24.358Z,3.68
2023-02-24T08:17:56.766Z,3.66
2023-02-24T08:20:30.199Z,3.62
2023-02-24T08:22:58.530Z,3.59
2023-02-24T08:25:38.565Z,3.64
2023-02-24T08:28:11.917Z,3.63
2023-02-24T08:30:46.037Z,3.68
2023-02-24T08:33:23.334Z,3.71
2023-02-24T08:36:02.125Z,3.73
2023-02-24T08:38:45.117Z,3.80
2023-02-24T08:41:21.143Z,3.82
2023-02-24T08:43:49.774Z,3.85
2023-02-24T08:46:26.727Z,3.87
2023-02-24T08:48:57.952Z,3.88
2023-02-24T08:51:44.004Z,3.91
2023-02-24T08:54:27.333Z,3.98
2023-02-24T08:56:56.629Z,4.01
2023-02-24T08:59:38.398Z,4.03
2023-02-24T09:02:19.307Z,4.12
2023-02-24T09:04:52.934Z,4.14
2023-02-24T09:07:28.146Z,4.15
2023-02-24T09:10:00.155Z,4.28
2023-02-24T09:12:30.445Z,4.27
2023-02-24T09:15:02.351Z,4.25
2023-02-24T09:17:48.907Z,4.31
2023-02-24T09:20:39.588Z,4.40
2023-02-24T09:23:09.010Z,4.35
2023-02-24T09:25:44.787Z,4.32
2023-02-24T09:28:18.491Z,4.36
2023-02-24T09:30:55.079Z,4.36
2023-02-24T09:33:42.458Z,4.45
2023-02-24T09:36:14.396Z,4.42
2023-02-24T09:39:00.862Z,4.42
2023-02-24T09:41:58.956Z,4.37
2023-02-24T09:44:45.632Z,4.32
2023-02-24T09:47:40.167Z,4.42
2023-02-24T09:50:55.085Z,4.41
2023-02-24T09:53:20.101Z,4.45
2023-02-24T09:56:06.174Z,4.50
2023-02-24T09:58:43.640Z,4.50
2023-02-24T10:01:31.217Z,4.50
2023-02-24T10:04:21.442Z,4.54
2023-02-24T10:07:30.551Z,4.55
2023-02-24T10:10:28.299Z,4.54
2023-02-24T10:13:13.934Z,4.61
2023-02-24T10:15:59.512Z,4.65
2023-02-24T10:18:35.232Z,4.63
2023-02-24T10:21:18.489Z,4.59
2023-02-24T10:23:46.911Z,4.62
2023-02-24T10:26:32.241Z,4.68
2023-02-24T10:29:22.830Z,4.68
2023-02-24T10:32:17.312Z,4.67
2023-02-24T10:34:47.557Z,4.81
2023-02-24T10:37:28.141Z,4.94
2023-02-24T10:40:09.783Z,5.12
2023-02-24T10:42:49.051Z,5.30
2023-02-24T10:45:27.452Z,5.56
2023-02-24T10:47:58.620Z,5.84
2023-02-24T10:50:32.871Z,5.94
2023-02-24T10:53:08.633Z,5.93
2023-02-24T10:55:45.996Z,5.86
2023-02-24T10:58:38.075Z,5.91
2023-02-24T11:01:21.383Z,6.17
2023-02-24T11:04:01.508Z,6.43
2023-02-24T11:06:40.837Z,6.64
2023-02-24T11:09:29.436Z,6.82
2023-02-24T11:12:25.211Z,6.85
2023-02-24T11:15:20.223Z,6.72
2023-02-24T11:17:59.093Z,6.58
2023-02-24T11:20:49.805Z,6.70
2023-02-24T11:23:27.549Z,6.77
2023-02-24T11:26:01.022Z,6.68
2023-02-24T11:28:32.292Z,6.61
2023-02-24T11:31:00.571Z,6.57
2023-02-24T11:33:40.041Z,6.55
2023-02-24T11:36:20.765Z,6.58
2023-02-24T11:39:22.871Z,6.54
2023-02-24T11:41:57.576Z,6.46
2023-02-24T11:44:48.816Z,6.38
2023-02-24T11:47:23.208Z,6.35
2023-02-24T11:50:06.051Z,6.24
2023-02-24T11:52:38.935Z,6.10
2023-02-24T11:55:36.311Z,6.01
2023-02-24T11:58:19.210Z,6.05
2023-02-24T12:01:17.163Z,6.09
2023-02-24T12:03:54.232Z,6.09
2023-02-24T12:06:57.146Z,6.08
2023-02-24T12:09:32.790Z,6.09
2023-02-24T12:12:24.337Z,6.04
2023-02-24T12:15:03.804Z,6.06
2023-02-24T12:18:18.283Z,6.00
2023-02-24T12:20:53.108Z,6.03
2023-02-24T12:23:37.664Z,5.95
2023-02-24T12:26:08.958Z,5.82
2023-02-24T12:28:57.131Z,5.84
2023-02-24T12:31:35.134Z,5.84
2023-02-24T12:34:12.194Z,5.85
2023-02-24T12:36:49.709Z,5.87
2023-02-24T12:39:29.876Z,5.95
2023-02-24T12:42:20.325Z,6.01
2023-02-24T12:45:17.107Z,6.00
2023-02-24T12:47:53.456Z,6.03
2023-02-24T12:50:46.329Z,6.05
2023-02-24T12:53:28.112Z,6.12
2023-02-24T12:56:20.774Z,6.09
2023-02-24T12:58:52.342Z,6.06
2023-02-24T13:01:48.704Z,5.99
2023-02-24T13:04:37.733Z,5.99
2023-02-24T13:07:46.093Z,6.02
2023-02-24T13:10:36.863Z,6.12
2023-02-24T13:13:25.100Z,6.11
2023-02-24T13:15:56.511Z,6.15
2023-02-24T13:18:25.845Z,6.22
2023-02-24T13:21:05.917Z,6.25
2023-02-24T13:23:35.316Z,6.28
2023-02-24T13:26:04.131Z,6.33
2023-02-24T13:28:38.532Z,6.39
2023-02-24T13:31:12.993Z,6.42
2023-02-24T13:33:43.995Z,6.39
2023-02-24T13:36:14.564Z,6.43
2023-02-24T13:38:46.324Z,6.43
2023-02-24T13:41:23.904Z,6.42
2023-02-24T13:43:56.367Z,6.42
2023-02-24T13:46:28.742Z,6.37
2023-02-24T13:49:24.983Z,6.36
2023-02-24T13:52:02.892Z,6.37
2023-02-24T13:54:54.710Z,6.36
2023-02-24T13:57:41.257Z,6.38
2023-02-24T14:00:28.591Z,6.38
2023-02-24T14:02:57.841Z,6.42
2023-02-24T14:05:31.249Z,6.53
2023-02-24T14:08:00.786Z,6.61
2023-02-24T14:10:33.276Z,6.64
2023-02-24T14:13:14.933Z,6.64
2023-02-24T14:15:45.740Z,6.66
2023-02-24T14:18:26.656Z,6.70
2023-02-24T14:20:57.097Z,6.70
2023-02-24T14:23:32.256Z,6.71
2023-02-24T14:26:20.526Z,6.73
2023-02-24T14:28:58.193Z,6.68
2023-02-24T14:31:28.223Z,6.65
2023-02-24T14:34:00.849Z,6.66
2023-02-24T14:36:35.820Z,6.65
2023-02-24T14:39:15.595Z,6.63
2023-02-24T14:41:45.457Z,6.71
2023-02-24T14:44:28.753Z,6.81
2023-02-24T14:46:59.634Z,6.88
2023-02-24T14:49:30.122Z,6.91
2023-02-24T14:52:00.773Z,6.93
2023-02-24T14:54:45.680Z,6.93
2023-02-24T14:57:19.987Z,6.93
2023-02-24T14:59:55.413Z,6.89
2023-02-24T15:02:30.323Z,6.84
2023-02-24T15:05:00.465Z,6.52
2023-02-24T15:07:32.383Z,6.29
2023-02-24T15:10:02.363Z,6.14
2023-02-24T15:12:35.643Z,6.04
2023-02-24T15:15:35.115Z,6.00
2023-02-24T15:18:12.239Z,5.95
2023-02-24T15:20:41.137Z,5.94
2023-02-24T15:23:32.656Z,5.92
2023-02-24T15:26:01.867Z,5.96
2023-02-24T15:28:37.811Z,6.06
2023-02-24T15:31:06.469Z,6.08
2023-02-24T15:33:39.496Z,6.01
2023-02-24T15:36:24.191Z,5.87
2023-02-24T15:39:00.000Z,5.76
2023-02-24T15:41:41.813Z,5.69
2023-02-24T15:44:31.170Z,5.66
2023-02-24T15:47:12.251Z,5.72
2023-02-24T15:49:40.525Z,5.74
2023-02-24T15:52:10.914Z,5.76
2023-02-24T15:54:40.204Z,5.70
2023-02-24T15:57:12.626Z,5.57
2023-02-24T15:59:41.262Z,5.49
2023-02-24T16:02:18.368Z,5.39
2023-02-24T16:04:47.706Z,5.31
2023-02-24T16:07:22.246Z,5.36
2023-02-24T16:09:54.509Z,5.38
2023-02-24T16:12:28.848Z,5.33
2023-02-24T16:15:03.312Z,5.26
2023-02-24T16:17:36.034Z,5.15
2023-02-24T16:20:09.166Z,5.06
2023-02-24T16:22:37.412Z,4.96
2023-02-24T16:25:06.992Z,4.89
2023-02-24T16:27:36.639Z,4.93
2023-02-24T16:30:05.611Z,4.96
2023-02-24T16:32:34.027Z,5.00
2023-02-24T16:35:02.493Z,5.01
2023-02-24T16:37:30.859Z,4.93
2023-02-24T16:39:59.699Z,4.84
2023-02-24T16:42:27.925Z,4.73
2023-02-24T16:44:55.955Z,4.75
2023-02-24T16:47:25.336Z,4.72
2023-02-24T16:49:58.082Z,4.69
2023-02-24T16:52:26.678Z,4.67
2023-02-24T16:54:55.111Z,4.65
2023-02-24T16:57:25.781Z,4.66
2023-02-24T16:59:54.441Z,4.56
2023-02-24T17:02:25.179Z,4.46
2023-02-24T17:04:53.594Z,4.28
2023-02-24T17:07:21.989Z,4.27
2023-02-24T17:09:50.278Z,4.34
2023-02-24T17:12:22.190Z,4.36
2023-02-24T17:14:50.509Z,4.32
2023-02-24T17:17:18.739Z,4.27
2023-02-24T17:19:46.975Z,4.24
2023-02-24T17:22:15.134Z,4.22
2023-02-24T17:24:43.964Z,4.19
2023-02-24T17:27:12.101Z,4.20
2023-02-24T17:29:40.385Z,4.22
2023-02-24T17:32:09.346Z,4.22
2023-02-24T17:34:37.652Z,4.25
2023-02-24T17:37:06.127Z,4.31
2023-02-24T17:39:34.418Z,4.38
2023-02-24T17:42:02.887Z,4.41
2023-02-24T17:44:31.522Z,4.41
2023-02-24T17:46:59.752Z,4.44
2023-02-24T17:49:28.241Z,4.50
2023-02-24T17:51:57.346Z,4.54
2023-02-24T17:54:25.709Z,4.55
2023-02-24T17:56:53.841Z,4.74
2023-02-24T17:59:23.701Z,4.99
2023-02-24T18:01:52.212Z,5.18
2023-02-24T18:04:20.379Z,5.33
2023-02-24T18:06:48.854Z,5.40
2023-02-24T18:09:17.327Z,5.44
2023-02-24T18:11:46.126Z,5.43
2023-02-24T18:14:14.717Z,5.39
2023-02-24T18:16:43.249Z,5.37
2023-02-24T18:19:11.383Z,5.36
2023-02-24T18:21:39.788Z,5.33
2023-02-24T18:24:08.769Z,5.34
2023-02-24T18:26:37.524Z,5.37
2023-02-24T18:29:06.656Z,5.36
2023-02-24T18:31:35.118Z,5.33
2023-02-24T18:34:03.593Z,5.35
2023-02-24T18:36:31.771Z,5.32
2023-02-24T18:39:00.235Z,5.28
2023-02-24T18:41:28.530Z,5.24
2023-02-24T18:43:57.636Z,5.20
2023-02-24T18:46:26.932Z,5.12
2023-02-24T18:48:56.311Z,5.16
2023-02-24T18:51:32.708Z,5.21
2023-02-24T18:54:01.697Z,5.24
2023-02-24T18:56:33.179Z,5.28
2023-02-24T18:59:05.424Z,5.35
2023-02-24T19:01:39.314Z,5.40
2023-02-24T19:04:09.927Z,5.43
2023-02-24T19:06:38.449Z,5.49
2023-02-24T19:09:11.593Z,5.55
2023-02-24T19:11:41.241Z,5.64
2023-02-24T19:14:13.574Z,5.69
2023-02-24T19:16:41.839Z,5.75
2023-02-24T19:19:14.001Z,5.77
2023-02-24T19:21:45.600Z,5.77
2023-02-24T19:24:15.034Z,5.78
2023-02-24T19:26:45.936Z,5.75
2023-02-24T19:29:14.665Z,5.71
2023-02-24T19:31:43.756Z,5.70
2023-02-24T19:34:15.388Z,5.69
2023-02-24T19:36:43.702Z,5.72
2023-02-24T19:39:15.578Z,5.70
2023-02-24T19:41:44.732Z,5.71
2023-02-24T19:44:13.147Z,5.70
2023-02-24T19:46:41.199Z,5.71
2023-02-24T19:49:09.328Z,5.71
2023-02-24T19:51:37.776Z,5.68
2023-02-24T19:54:06.345Z,5.63
2023-02-24T19:56:36.895Z,5.62
2023-02-24T19:59:08.051Z,5.62
2023-02-24T20:01:36.990Z,5.60
2023-02-24T20:04:06.046Z,5.57
2023-02-24T20:06:37.260Z,5.57
2023-02-24T20:09:11.768Z,5.53
2023-02-24T20:11:40.399Z,5.49
2023-02-24T20:14:09.864Z,5.45
2023-02-24T20:16:42.521Z,5.40
2023-02-24T20:19:13.667Z,5.41
2023-02-24T20:21:42.429Z,5.44
2023-02-24T20:24:14.019Z,5.46
2023-02-24T20:26:46.416Z,5.44
2023-02-24T20:29:17.362Z,5.45
2023-02-24T20:31:46.606Z,5.51
2023-02-24T20:34:16.828Z,5.76
2023-02-24T20:36:45.813Z,6.03
2023-02-24T20:39:14.550Z,6.17
2023-02-24T20:41:43.479Z,6.31
2023-02-24T20:44:12.363Z,6.42
2023-02-24T20:46:41.595Z,6.44
2023-02-24T20:49:14.651Z,6.50
2023-02-24T20:51:43.989Z,6.56
2023-02-24T20:54:13.825Z,6.58
2023-02-24T20:56:43.793Z,6.56
2023-02-24T20:59:24.265Z,6.52
2023-02-24T21:01:52.668Z,6.48
2023-02-24T21:04:22.057Z,6.44
2023-02-24T21:06:52.179Z,6.39
2023-02-24T21:09:20.466Z,6.33
2023-02-24T21:11:48.925Z,6.29
2023-02-24T21:14:17.628Z,6.24
2023-02-24T21:16:46.507Z,6.21
2023-02-24T21:19:15.215Z,6.20
2023-02-24T21:21:43.761Z,6.18
2023-02-24T21:24:12.168Z,6.13
2023-02-24T21:26:40.747Z,6.07
2023-02-24T21:29:08.974Z,6.03
2023-02-24T21:31:37.304Z,6.05
2023-02-24T21:34:05.674Z,6.06
2023-02-24T21:36:33.781Z,6.07
2023-02-24T21:39:02.137Z,6.09
2023-02-24T21:41:30.413Z,6.15
2023-02-24T21:44:00.662Z,6.14
2023-02-24T21:46:29.237Z,6.13
2023-02-24T21:48:59.066Z,6.23
2023-02-24T21:51:28.602Z,6.42
2023-02-24T21:53:57.838Z,6.57
2023-02-24T21:56:28.894Z,6.72
2023-02-24T21:58:59.635Z,6.83
2023-02-24T22:01:34.098Z,6.84
2023-02-24T22:04:04.930Z,6.84
2023-02-24T22:06:35.458Z,6.81
2023-02-24T22:09:07.055Z,6.77
2023-02-24T22:11:37.907Z,6.77
2023-02-24T22:14:11.464Z,6.80
2023-02-24T22:16:40.025Z,6.82
2023-02-24T22:19:09.300Z,6.79
2023-02-24T22:21:39.775Z,6.75
2023-02-24T22:24:12.578Z,6.74
2023-02-24T22:26:41.580Z,6.70
2023-02-24T22:29:10.438Z,6.61
2023-02-24T22:31:39.797Z,6.54
2023-02-24T22:34:09.196Z,6.53
2023-02-24T22:36:37.933Z,6.49
2023-02-24T22:39:09.024Z,6.44
2023-02-24T22:41:37.523Z,6.37
2023-02-24T22:44:07.031Z,6.32
2023-02-24T22:46:38.329Z,6.22
2023-02-24T22:49:07.618Z,6.14
2023-02-24T22:51:35.864Z,6.11
2023-02-24T22:54:04.955Z,5.91
2023-02-24T22:56:33.156Z,5.86
2023-02-24T22:59:01.419Z,5.71
2023-02-24T23:01:36.070Z,5.62
2023-02-24T23:04:07.137Z,5.58
2023-02-24T23:06:36.582Z,5.59
2023-02-24T23:09:06.422Z,5.65
2023-02-24T23:11:38.797Z,5.75
2023-02-24T23:14:13.524Z,5.91
2023-02-24T23:16:44.695Z,5.97
2023-02-24T23:19:17.065Z,6.09
2023-02-24T23:21:48.068Z,6.13
2023-02-24T23:24:18.106Z,6.12
2023-02-24T23:26:54.472Z,6.12
2023-02-24T23:29:22.988Z,6.15
2023-02-24T23:31:52.445Z,6.17
2023-02-24T23:34:21.153Z,6.18
2023-02-24T23:36:50.033Z,6.18
2023-02-24T23:39:23.192Z,6.17
2023-02-24T23:41:56.828Z,6.13
2023-02-24T23:44:25.867Z,6.08
2023-02-24T23:46:54.945Z,6.07
2023-02-24T23:49:23.402Z,6.10
2023-02-24T23:51:51.604Z,6.15
2023-02-24T23:54:20.601Z,6.27
2023-02-24T23:56:48.881Z,6.31
2023-02-24T23:59:17.122Z,6.37
